sensor_id;sensor_type;location;lat;lon;timestamp;pressure;altitude;pressure_sealevel;temperature
27986;BMP280;15453;53.692;10.168;2023-05-16T00:02:15;100943.97;;;15.91
27986;BMP280;15453;53.692;10.168;2023-05-16T00:04:40;100940.66;;;15.89
27986;BMP280;15453;53.692;10.168;2023-05-16T00:07:05;100940.97;;;15.87
27986;BMP280;15453;53.692;10.168;2023-05-16T00:09:31;100941.75;;;15.88
27986;BMP280;15453;53.692;10.168;2023-05-16T00:11:56;100941.50;;;15.84
27986;BMP280;15453;53.692;10.168;2023-05-16T00:14:21;100937.91;;;15.84
27986;BMP280;15453;53.692;10.168;2023-05-16T00:16:53;100943.97;;;15.81
27986;BMP280;15453;53.692;10.168;2023-05-16T00:19:19;100943.97;;;15.81
27986;BMP280;15453;53.692;10.168;2023-05-16T00:21:44;100942.63;;;15.73
27986;BMP280;15453;53.692;10.168;2023-05-16T00:24:10;100948.97;;;15.74
27986;BMP280;15453;53.692;10.168;2023-05-16T00:26:35;100952.56;;;15.74
27986;BMP280;15453;53.692;10.168;2023-05-16T00:29:00;100950.34;;;15.76
27986;BMP280;15453;53.692;10.168;2023-05-16T00:31:26;100940.97;;;15.77
27986;BMP280;15453;53.692;10.168;2023-05-16T00:33:51;100940.97;;;15.77
27986;BMP280;15453;53.692;10.168;2023-05-16T00:36:17;100948.41;;;15.77
27986;BMP280;15453;53.692;10.168;2023-05-16T00:38:42;100952.84;;;15.78
27986;BMP280;15453;53.692;10.168;2023-05-16T00:41:07;100954.50;;;15.79
27986;BMP280;15453;53.692;10.168;2023-05-16T00:43:32;100952.25;;;15.81
27986;BMP280;15453;53.692;10.168;2023-05-16T00:45:58;100945.09;;;15.80
27986;BMP280;15453;53.692;10.168;2023-05-16T00:48:24;100958.34;;;15.83
27986;BMP280;15453;53.692;10.168;2023-05-16T00:50:50;100956.72;;;15.82
27986;BMP280;15453;53.692;10.168;2023-05-16T00:53:16;100956.72;;;15.82
27986;BMP280;15453;53.692;10.168;2023-05-16T00:55:42;100968.84;;;15.81
27986;BMP280;15453;53.692;10.168;2023-05-16T00:58:08;100968.84;;;15.81
27986;BMP280;15453;53.692;10.168;2023-05-16T01:00:35;100964.16;;;15.81
27986;BMP280;15453;53.692;10.168;2023-05-16T01:03:04;100961.97;;;15.83
27986;BMP280;15453;53.692;10.168;2023-05-16T01:05:29;100965.81;;;15.82
27986;BMP280;15453;53.692;10.168;2023-05-16T01:07:55;100959.47;;;15.82
27986;BMP280;15453;53.692;10.168;2023-05-16T01:10:20;100961.97;;;15.83
27986;BMP280;15453;53.692;10.168;2023-05-16T01:13:11;100961.97;;;15.83
27986;BMP280;15453;53.692;10.168;2023-05-16T01:15:51;100960.56;;;15.81
27986;BMP280;15453;53.692;10.168;2023-05-16T01:18:38;100973.25;;;15.87
27986;BMP280;15453;53.692;10.168;2023-05-16T01:21:15;100973.25;;;15.87
27986;BMP280;15453;53.692;10.168;2023-05-16T01:24:03;100964.41;;;15.85
27986;BMP280;15453;53.692;10.168;2023-05-16T01:26:32;100964.72;;;15.83
27986;BMP280;15453;53.692;10.168;2023-05-16T01:28:58;100972.16;;;15.83
27986;BMP280;15453;53.692;10.168;2023-05-16T01:31:23;100971.31;;;15.82
27986;BMP280;15453;53.692;10.168;2023-05-16T01:33:49;100969.41;;;15.83
27986;BMP280;15453;53.692;10.168;2023-05-16T01:36:35;100969.41;;;15.83
27986;BMP280;15453;53.692;10.168;2023-05-16T01:41:52;100959.72;;;15.85
27986;BMP280;15453;53.692;10.168;2023-05-16T01:44:49;100959.72;;;15.85
27986;BMP280;15453;53.692;10.168;2023-05-16T01:47:19;100971.31;;;15.92
27986;BMP280;15453;53.692;10.168;2023-05-16T01:52:31;100968.84;;;15.91
27986;BMP280;15453;53.692;10.168;2023-05-16T01:54:59;100970.75;;;16.00
27986;BMP280;15453;53.692;10.168;2023-05-16T01:57:25;100970.75;;;16.00
27986;BMP280;15453;53.692;10.168;2023-05-16T01:59:52;100961.91;;;15.98
27986;BMP280;15453;53.692;10.168;2023-05-16T02:02:18;100973.81;;;15.99
27986;BMP280;15453;53.692;10.168;2023-05-16T02:04:43;100978.47;;;15.98
27986;BMP280;15453;53.692;10.168;2023-05-16T02:07:08;100989.28;;;15.95
27986;BMP280;15453;53.692;10.168;2023-05-16T02:09:34;100985.66;;;15.94
27986;BMP280;15453;53.692;10.168;2023-05-16T02:11:59;100990.94;;;15.91
27986;BMP280;15453;53.692;10.168;2023-05-16T02:14:24;100988.72;;;15.88
27986;BMP280;15453;53.692;10.168;2023-05-16T02:16:50;100986.50;;;15.85
27986;BMP280;15453;53.692;10.168;2023-05-16T02:19:15;100986.50;;;15.85
27986;BMP280;15453;53.692;10.168;2023-05-16T02:21:40;100983.22;;;15.78
27986;BMP280;15453;53.692;10.168;2023-05-16T02:24:06;100983.22;;;15.78
27986;BMP280;15453;53.692;10.168;2023-05-16T02:26:31;100983.78;;;15.70
27986;BMP280;15453;53.692;10.168;2023-05-16T02:28:56;100973.84;;;15.69
27986;BMP280;15453;53.692;10.168;2023-05-16T02:31:29;100973.84;;;15.69
27986;BMP280;15453;53.692;10.168;2023-05-16T02:33:55;100970.53;;;15.62
27986;BMP280;15453;53.692;10.168;2023-05-16T02:36:21;100979.66;;;15.62
27986;BMP280;15453;53.692;10.168;2023-05-16T02:38:46;100979.34;;;15.59
27986;BMP280;15453;53.692;10.168;2023-05-16T02:41:11;100986.53;;;15.55
27986;BMP280;15453;53.692;10.168;2023-05-16T02:43:36;100984.31;;;15.52
27986;BMP280;15453;53.692;10.168;2023-05-16T02:46:18;100985.16;;;15.47
27986;BMP280;15453;53.692;10.168;2023-05-16T02:48:44;100987.06;;;15.47
27986;BMP280;15453;53.692;10.168;2023-05-16T02:51:09;100998.13;;;15.47
27986;BMP280;15453;53.692;10.168;2023-05-16T02:53:34;100996.47;;;15.41
27986;BMP280;15453;53.692;10.168;2023-05-16T02:55:59;101005.28;;;15.38
27986;BMP280;15453;53.692;10.168;2023-05-16T02:58:25;101000.31;;;15.35
27986;BMP280;15453;53.692;10.168;2023-05-16T03:00:50;100995.06;;;15.33
27986;BMP280;15453;53.692;10.168;2023-05-16T03:03:15;101002.78;;;15.31
27986;BMP280;15453;53.692;10.168;2023-05-16T03:05:40;101009.94;;;15.32
27986;BMP280;15453;53.692;10.168;2023-05-16T03:08:06;101009.94;;;15.32
27986;BMP280;15453;53.692;10.168;2023-05-16T03:10:31;101001.13;;;15.30
27986;BMP280;15453;53.692;10.168;2023-05-16T03:12:56;101010.22;;;15.31
27986;BMP280;15453;53.692;10.168;2023-05-16T03:15:22;101005.25;;;15.33
27986;BMP280;15453;53.692;10.168;2023-05-16T03:17:47;101017.94;;;15.34
27986;BMP280;15453;53.692;10.168;2023-05-16T03:20:12;101010.78;;;15.33
27986;BMP280;15453;53.692;10.168;2023-05-16T03:22:37;101012.97;;;15.31
27986;BMP280;15453;53.692;10.168;2023-05-16T03:25:04;101024.31;;;15.29
27986;BMP280;15453;53.692;10.168;2023-05-16T03:27:30;101019.59;;;15.30
27986;BMP280;15453;53.692;10.168;2023-05-16T03:29:55;101019.59;;;15.30
27986;BMP280;15453;53.692;10.168;2023-05-16T03:32:20;101033.13;;;15.31
27986;BMP280;15453;53.692;10.168;2023-05-16T03:34:46;101033.13;;;15.26
27986;BMP280;15453;53.692;10.168;2023-05-16T03:37:11;101033.13;;;15.26
27986;BMP280;15453;53.692;10.168;2023-05-16T03:39:39;101031.75;;;15.19
27986;BMP280;15453;53.692;10.168;2023-05-16T03:42:04;101044.97;;;15.17
27986;BMP280;15453;53.692;10.168;2023-05-16T03:44:29;101035.84;;;15.16
27986;BMP280;15453;53.692;10.168;2023-05-16T03:46:55;101035.84;;;15.16
27986;BMP280;15453;53.692;10.168;2023-05-16T03:49:25;101034.19;;;15.10
27986;BMP280;15453;53.692;10.168;2023-05-16T03:51:52;101048.25;;;15.09
27986;BMP280;15453;53.692;10.168;2023-05-16T03:54:17;101048.25;;;15.09
27986;BMP280;15453;53.692;10.168;2023-05-16T03:56:42;101043.25;;;15.01
27986;BMP280;15453;53.692;10.168;2023-05-16T03:59:08;101052.63;;;15.00
27986;BMP280;15453;53.692;10.168;2023-05-16T04:01:33;101060.63;;;14.96
27986;BMP280;15453;53.692;10.168;2023-05-16T04:03:58;101060.63;;;14.96
27986;BMP280;15453;53.692;10.168;2023-05-16T04:06:24;101051.78;;;14.94
27986;BMP280;15453;53.692;10.168;2023-05-16T04:08:49;101054.00;;;14.92
27986;BMP280;15453;53.692;10.168;2023-05-16T04:11:15;101054.00;;;14.92
27986;BMP280;15453;53.692;10.168;2023-05-16T04:13:40;101065.56;;;14.89
27986;BMP280;15453;53.692;10.168;2023-05-16T04:16:06;101065.56;;;14.89
27986;BMP280;15453;53.692;10.168;2023-05-16T04:18:31;101065.56;;;14.89
27986;BMP280;15453;53.692;10.168;2023-05-16T04:20:56;101069.69;;;14.87
27986;BMP280;15453;53.692;10.168;2023-05-16T04:23:22;101069.69;;;14.87
27986;BMP280;15453;53.692;10.168;2023-05-16T04:25:47;101062.78;;;14.84
27986;BMP280;15453;53.692;10.168;2023-05-16T04:28:12;101071.88;;;14.85
27986;BMP280;15453;53.692;10.168;2023-05-16T04:30:37;101071.88;;;14.85
27986;BMP280;15453;53.692;10.168;2023-05-16T04:33:03;101081.22;;;14.79
27986;BMP280;15453;53.692;10.168;2023-05-16T04:35:28;101082.06;;;14.79
27986;BMP280;15453;53.692;10.168;2023-05-16T04:37:53;101084.25;;;14.77
27986;BMP280;15453;53.692;10.168;2023-05-16T04:40:18;101084.25;;;14.77
27986;BMP280;15453;53.692;10.168;2023-05-16T04:42:43;101080.94;;;14.75
27986;BMP280;15453;53.692;10.168;2023-05-16T04:45:09;101087.00;;;14.77
27986;BMP280;15453;53.692;10.168;2023-05-16T04:47:39;101087.00;;;14.77
27986;BMP280;15453;53.692;10.168;2023-05-16T04:50:05;101084.25;;;14.72
27986;BMP280;15453;53.692;10.168;2023-05-16T04:52:30;101095.53;;;14.71
27986;BMP280;15453;53.692;10.168;2023-05-16T04:54:56;101099.91;;;14.67
27986;BMP280;15453;53.692;10.168;2023-05-16T04:57:24;101102.38;;;14.63
27986;BMP280;15453;53.692;10.168;2023-05-16T04:59:49;101112.84;;;14.61
27986;BMP280;15453;53.692;10.168;2023-05-16T05:02:15;101115.03;;;14.59
27986;BMP280;15453;53.692;10.168;2023-05-16T05:04:40;101115.03;;;14.59
27986;BMP280;15453;53.692;10.168;2023-05-16T05:07:05;101115.59;;;14.61
27986;BMP280;15453;53.692;10.168;2023-05-16T05:09:32;101115.59;;;14.61
27986;BMP280;15453;53.692;10.168;2023-05-16T05:11:57;101112.56;;;14.63
27986;BMP280;15453;53.692;10.168;2023-05-16T05:14:22;101121.69;;;14.63
27986;BMP280;15453;53.692;10.168;2023-05-16T05:16:47;101122.22;;;14.65
27986;BMP280;15453;53.692;10.168;2023-05-16T05:19:13;101122.50;;;14.64
27986;BMP280;15453;53.692;10.168;2023-05-16T05:21:38;101121.69;;;14.63
27986;BMP280;15453;53.692;10.168;2023-05-16T05:24:04;101121.69;;;14.63
27986;BMP280;15453;53.692;10.168;2023-05-16T05:26:29;101123.31;;;14.59
27986;BMP280;15453;53.692;10.168;2023-05-16T05:28:55;101137.66;;;14.61
27986;BMP280;15453;53.692;10.168;2023-05-16T05:31:20;101134.06;;;14.61
27986;BMP280;15453;53.692;10.168;2023-05-16T05:33:45;101132.38;;;14.60
27986;BMP280;15453;53.692;10.168;2023-05-16T05:36:10;101132.38;;;14.60
27986;BMP280;15453;53.692;10.168;2023-05-16T05:38:36;101132.38;;;14.60
27986;BMP280;15453;53.692;10.168;2023-05-16T05:41:02;101144.81;;;14.62
27986;BMP280;15453;53.692;10.168;2023-05-16T05:43:27;101144.56;;;14.64
27986;BMP280;15453;53.692;10.168;2023-05-16T05:45:53;101144.56;;;14.64
27986;BMP280;15453;53.692;10.168;2023-05-16T05:48:18;101134.06;;;14.61
27986;BMP280;15453;53.692;10.168;2023-05-16T05:50:43;101139.59;;;14.61
27986;BMP280;15453;53.692;10.168;2023-05-16T05:53:09;101140.44;;;14.66
27986;BMP280;15453;53.692;10.168;2023-05-16T05:55:34;101138.53;;;14.72
27986;BMP280;15453;53.692;10.168;2023-05-16T05:57:59;101149.06;;;14.80
27986;BMP280;15453;53.692;10.168;2023-05-16T06:00:25;101146.31;;;14.85
27986;BMP280;15453;53.692;10.168;2023-05-16T06:02:50;101143.56;;;14.85
27986;BMP280;15453;53.692;10.168;2023-05-16T06:05:15;101148.81;;;14.86
27986;BMP280;15453;53.692;10.168;2023-05-16T06:07:41;101160.97;;;14.90
27986;BMP280;15453;53.692;10.168;2023-05-16T06:10:06;101160.97;;;14.90
27986;BMP280;15453;53.692;10.168;2023-05-16T06:12:32;101163.47;;;14.92
27986;BMP280;15453;53.692;10.168;2023-05-16T06:14:58;101165.09;;;14.88
27986;BMP280;15453;53.692;10.168;2023-05-16T06:17:23;101159.59;;;14.88
27986;BMP280;15453;53.692;10.168;2023-05-16T06:19:48;101168.72;;;14.88
27986;BMP280;15453;53.692;10.168;2023-05-16T06:22:13;101168.72;;;14.88
27986;BMP280;15453;53.692;10.168;2023-05-16T06:24:39;101168.44;;;14.90
27986;BMP280;15453;53.692;10.168;2023-05-16T06:27:06;101168.44;;;14.90
27986;BMP280;15453;53.692;10.168;2023-05-16T06:29:31;101160.72;;;14.92
27986;BMP280;15453;53.692;10.168;2023-05-16T06:31:56;101160.72;;;14.92
27986;BMP280;15453;53.692;10.168;2023-05-16T06:34:22;101166.22;;;14.92
27986;BMP280;15453;53.692;10.168;2023-05-16T06:36:53;101160.44;;;14.93
27986;BMP280;15453;53.692;10.168;2023-05-16T06:39:19;101157.44;;;14.95
27986;BMP280;15453;53.692;10.168;2023-05-16T06:41:45;101166.00;;;15.03
27986;BMP280;15453;53.692;10.168;2023-05-16T06:44:10;101166.00;;;15.03
27986;BMP280;15453;53.692;10.168;2023-05-16T06:46:35;101185.91;;;15.05
27986;BMP280;15453;53.692;10.168;2023-05-16T06:49:01;101182.06;;;15.11
27986;BMP280;15453;53.692;10.168;2023-05-16T06:51:26;101179.31;;;15.16
27986;BMP280;15453;53.692;10.168;2023-05-16T06:53:52;101184.31;;;15.24
27986;BMP280;15453;53.692;10.168;2023-05-16T06:56:17;101184.31;;;15.24
27986;BMP280;15453;53.692;10.168;2023-05-16T06:58:42;101192.69;;;15.34
27986;BMP280;15453;53.692;10.168;2023-05-16T07:01:07;101192.69;;;15.34
27986;BMP280;15453;53.692;10.168;2023-05-16T07:03:33;101191.06;;;15.43
27986;BMP280;15453;53.692;10.168;2023-05-16T07:05:58;101191.06;;;15.43
27986;BMP280;15453;53.692;10.168;2023-05-16T07:08:24;101199.38;;;15.48
27986;BMP280;15453;53.692;10.168;2023-05-16T07:10:49;101201.00;;;15.49
27986;BMP280;15453;53.692;10.168;2023-05-16T07:13:15;101205.72;;;15.49
27986;BMP280;15453;53.692;10.168;2023-05-16T07:15:40;101207.38;;;15.50
27986;BMP280;15453;53.692;10.168;2023-05-16T07:18:05;101214.53;;;15.46
27986;BMP280;15453;53.692;10.168;2023-05-16T07:20:31;101217.31;;;15.51
27986;BMP280;15453;53.692;10.168;2023-05-16T07:22:56;101215.66;;;15.50
27986;BMP280;15453;53.692;10.168;2023-05-16T07:25:22;101215.66;;;15.50
27986;BMP280;15453;53.692;10.168;2023-05-16T07:27:47;101217.63;;;15.54
27986;BMP280;15453;53.692;10.168;2023-05-16T07:30:13;101216.25;;;15.57
27986;BMP280;15453;53.692;10.168;2023-05-16T07:32:39;101220.09;;;15.56
27986;BMP280;15453;53.692;10.168;2023-05-16T07:35:04;101220.09;;;15.56
27986;BMP280;15453;53.692;10.168;2023-05-16T07:37:30;101227.31;;;15.62
27986;BMP280;15453;53.692;10.168;2023-05-16T07:39:55;101227.31;;;15.62
27986;BMP280;15453;53.692;10.168;2023-05-16T07:42:21;101209.91;;;15.66
27986;BMP280;15453;53.692;10.168;2023-05-16T07:44:46;101211.31;;;15.69
27986;BMP280;15453;53.692;10.168;2023-05-16T07:47:11;101211.31;;;15.69
27986;BMP280;15453;53.692;10.168;2023-05-16T07:49:37;101218.78;;;15.78
27986;BMP280;15453;53.692;10.168;2023-05-16T07:52:02;101218.78;;;15.78
27986;BMP280;15453;53.692;10.168;2023-05-16T07:54:27;101223.50;;;15.88
27986;BMP280;15453;53.692;10.168;2023-05-16T07:56:53;101216.59;;;15.90
27986;BMP280;15453;53.692;10.168;2023-05-16T07:59:18;101212.19;;;15.89
27986;BMP280;15453;53.692;10.168;2023-05-16T08:01:44;101214.97;;;15.89
27986;BMP280;15453;53.692;10.168;2023-05-16T08:04:09;101214.97;;;15.89
27986;BMP280;15453;53.692;10.168;2023-05-16T08:06:35;101214.41;;;15.92
27986;BMP280;15453;53.692;10.168;2023-05-16T08:09:01;101221.88;;;15.97
27986;BMP280;15453;53.692;10.168;2023-05-16T08:11:26;101221.88;;;15.97
27986;BMP280;15453;53.692;10.168;2023-05-16T08:13:51;101220.50;;;15.99
27986;BMP280;15453;53.692;10.168;2023-05-16T08:16:17;101225.22;;;16.04
27986;BMP280;15453;53.692;10.168;2023-05-16T08:18:42;101225.22;;;16.04
27986;BMP280;15453;53.692;10.168;2023-05-16T08:21:07;101241.25;;;16.07
27986;BMP280;15453;53.692;10.168;2023-05-16T08:23:37;101224.94;;;16.10
27986;BMP280;15453;53.692;10.168;2023-05-16T08:26:02;101228.81;;;16.09
27986;BMP280;15453;53.692;10.168;2023-05-16T08:28:28;101218.88;;;16.13
27986;BMP280;15453;53.692;10.168;2023-05-16T08:30:54;101226.06;;;16.19
27986;BMP280;15453;53.692;10.168;2023-05-16T08:33:19;101226.63;;;16.21
27986;BMP280;15453;53.692;10.168;2023-05-16T08:35:44;101220.25;;;16.26
27986;BMP280;15453;53.692;10.168;2023-05-16T08:38:10;101231.88;;;16.33
27986;BMP280;15453;53.692;10.168;2023-05-16T08:40:35;101232.72;;;16.33
27986;BMP280;15453;53.692;10.168;2023-05-16T08:43:01;101232.41;;;16.35
27986;BMP280;15453;53.692;10.168;2023-05-16T08:45:27;101225.53;;;16.37
27986;BMP280;15453;53.692;10.168;2023-05-16T08:47:56;101220.81;;;16.38
27986;BMP280;15453;53.692;10.168;2023-05-16T08:50:22;101220.81;;;16.38
27986;BMP280;15453;53.692;10.168;2023-05-16T08:52:51;101218.34;;;16.26
27986;BMP280;15453;53.692;10.168;2023-05-16T08:55:19;101212.53;;;16.38
27986;BMP280;15453;53.692;10.168;2023-05-16T08:57:45;101204.00;;;16.44
27986;BMP280;15453;53.692;10.168;2023-05-16T09:00:11;101206.47;;;16.51
27986;BMP280;15453;53.692;10.168;2023-05-16T09:02:40;101212.84;;;16.56
27986;BMP280;15453;53.692;10.168;2023-05-16T09:05:16;101223.34;;;16.69
27986;BMP280;15453;53.692;10.168;2023-05-16T09:07:42;101225.00;;;16.75
27986;BMP280;15453;53.692;10.168;2023-05-16T09:10:08;101225.00;;;16.75
27986;BMP280;15453;53.692;10.168;2023-05-16T09:12:34;101209.50;;;16.79
27986;BMP280;15453;53.692;10.168;2023-05-16T09:15:01;101212.25;;;16.89
27986;BMP280;15453;53.692;10.168;2023-05-16T09:17:34;101211.13;;;16.95
27986;BMP280;15453;53.692;10.168;2023-05-16T09:20:07;101231.03;;;17.02
27986;BMP280;15453;53.692;10.168;2023-05-16T09:22:32;101231.03;;;17.02
27986;BMP280;15453;53.692;10.168;2023-05-16T09:24:58;101238.50;;;16.97
27986;BMP280;15453;53.692;10.168;2023-05-16T09:27:23;101232.72;;;16.93
27986;BMP280;15453;53.692;10.168;2023-05-16T09:29:50;101232.72;;;16.93
27986;BMP280;15453;53.692;10.168;2023-05-16T09:32:16;101232.72;;;16.88
27986;BMP280;15453;53.692;10.168;2023-05-16T09:37:09;101224.41;;;16.93
27986;BMP280;15453;53.692;10.168;2023-05-16T09:39:35;101232.69;;;17.13
27986;BMP280;15453;53.692;10.168;2023-05-16T09:42:00;101232.69;;;17.13
27986;BMP280;15453;53.692;10.168;2023-05-16T09:44:25;101215.72;;;17.35
27986;BMP280;15453;53.692;10.168;2023-05-16T09:46:53;101215.72;;;17.35
27986;BMP280;15453;53.692;10.168;2023-05-16T09:49:18;101221.78;;;17.47
27986;BMP280;15453;53.692;10.168;2023-05-16T09:51:44;101217.94;;;17.48
27986;BMP280;15453;53.692;10.168;2023-05-16T09:54:10;101212.66;;;17.47
27986;BMP280;15453;53.692;10.168;2023-05-16T09:56:48;101218.75;;;17.49
27986;BMP280;15453;53.692;10.168;2023-05-16T09:59:13;101220.69;;;17.43
27986;BMP280;15453;53.692;10.168;2023-05-16T10:01:40;101220.69;;;17.43
27986;BMP280;15453;53.692;10.168;2023-05-16T10:04:05;101237.59;;;17.32
27986;BMP280;15453;53.692;10.168;2023-05-16T10:06:31;101237.59;;;17.32
27986;BMP280;15453;53.692;10.168;2023-05-16T10:08:56;101229.06;;;17.23
27986;BMP280;15453;53.692;10.168;2023-05-16T10:11:22;101234.59;;;17.23
27986;BMP280;15453;53.692;10.168;2023-05-16T10:13:49;101234.59;;;17.23
27986;BMP280;15453;53.692;10.168;2023-05-16T10:16:17;101226.59;;;17.17
27986;BMP280;15453;53.692;10.168;2023-05-16T10:18:45;101239.31;;;17.17
27986;BMP280;15453;53.692;10.168;2023-05-16T10:21:14;101239.31;;;17.17
27986;BMP280;15453;53.692;10.168;2023-05-16T10:23:41;101234.88;;;17.11
27986;BMP280;15453;53.692;10.168;2023-05-16T10:26:07;101234.34;;;17.09
27986;BMP280;15453;53.692;10.168;2023-05-16T10:28:34;101238.69;;;17.36
27986;BMP280;15453;53.692;10.168;2023-05-16T10:31:00;101238.69;;;17.36
27986;BMP280;15453;53.692;10.168;2023-05-16T10:33:26;101223.47;;;17.43
27986;BMP280;15453;53.692;10.168;2023-05-16T10:35:52;101219.88;;;17.48
27986;BMP280;15453;53.692;10.168;2023-05-16T10:38:18;101219.88;;;17.48
27986;BMP280;15453;53.692;10.168;2023-05-16T10:40:46;101238.38;;;17.57
27986;BMP280;15453;53.692;10.168;2023-05-16T10:43:22;101238.38;;;17.57
27986;BMP280;15453;53.692;10.168;2023-05-16T10:45:54;101220.66;;;17.58
27986;BMP280;15453;53.692;10.168;2023-05-16T10:48:28;101233.34;;;17.69
27986;BMP280;15453;53.692;10.168;2023-05-16T10:50:53;101210.28;;;17.84
27986;BMP280;15453;53.692;10.168;2023-05-16T10:53:29;101222.94;;;17.95
27986;BMP280;15453;53.692;10.168;2023-05-16T11:01:23;101218.44;;;18.09
27986;BMP280;15453;53.692;10.168;2023-05-16T11:09:26;101235.38;;;17.97
27986;BMP280;15453;53.692;10.168;2023-05-16T11:19:33;101245.47;;;17.83
27986;BMP280;15453;53.692;10.168;2023-05-16T11:22:12;101245.47;;;17.83
27986;BMP280;15453;53.692;10.168;2023-05-16T11:24:54;101251.00;;;17.83
27986;BMP280;15453;53.692;10.168;2023-05-16T11:27:45;101250.47;;;17.76
27986;BMP280;15453;53.692;10.168;2023-05-16T11:30:17;101250.47;;;17.76
27986;BMP280;15453;53.692;10.168;2023-05-16T11:32:45;101237.19;;;17.78
27986;BMP280;15453;53.692;10.168;2023-05-16T11:35:15;101245.69;;;17.87
27986;BMP280;15453;53.692;10.168;2023-05-16T11:37:41;101245.09;;;17.95
27986;BMP280;15453;53.692;10.168;2023-05-16T11:40:10;101247.25;;;18.13
27986;BMP280;15453;53.692;10.168;2023-05-16T11:42:38;101247.25;;;18.13
27986;BMP280;15453;53.692;10.168;2023-05-16T11:47:35;101250.13;;;18.41
27986;BMP280;15453;53.692;10.168;2023-05-16T11:50:04;101233.38;;;18.51
27986;BMP280;15453;53.692;10.168;2023-05-16T11:52:30;101249.72;;;18.53
27986;BMP280;15453;53.692;10.168;2023-05-16T11:54:57;101251.69;;;18.52
27986;BMP280;15453;53.692;10.168;2023-05-16T11:57:25;101251.69;;;18.52
27986;BMP280;15453;53.692;10.168;2023-05-16T11:59:51;101263.94;;;18.46
27986;BMP280;15453;53.692;10.168;2023-05-16T12:02:17;101268.97;;;18.44
27986;BMP280;15453;53.692;10.168;2023-05-16T12:04:45;101259.00;;;18.33
27986;BMP280;15453;53.692;10.168;2023-05-16T12:07:10;101272.06;;;18.28
27986;BMP280;15453;53.692;10.168;2023-05-16T12:09:36;101269.59;;;18.26
27986;BMP280;15453;53.692;10.168;2023-05-16T12:12:04;101260.97;;;18.28
27986;BMP280;15453;53.692;10.168;2023-05-16T12:14:29;101275.66;;;18.33
27986;BMP280;15453;53.692;10.168;2023-05-16T12:16:55;101285.66;;;18.34
27986;BMP280;15453;53.692;10.168;2023-05-16T12:19:21;101278.47;;;18.28
27986;BMP280;15453;53.692;10.168;2023-05-16T12:21:46;101274.03;;;18.22
27986;BMP280;15453;53.692;10.168;2023-05-16T12:24:12;101287.38;;;18.20
27986;BMP280;15453;53.692;10.168;2023-05-16T12:26:39;101294.00;;;18.24
27986;BMP280;15453;53.692;10.168;2023-05-16T12:29:04;101289.59;;;18.18
27986;BMP280;15453;53.692;10.168;2023-05-16T12:31:35;101285.97;;;18.23
27986;BMP280;15453;53.692;10.168;2023-05-16T12:34:01;101300.09;;;18.31
27986;BMP280;15453;53.692;10.168;2023-05-16T12:36:31;101300.09;;;18.31
27986;BMP280;15453;53.692;10.168;2023-05-16T12:39:02;101297.22;;;18.46
27986;BMP280;15453;53.692;10.168;2023-05-16T12:41:31;101299.09;;;18.56
27986;BMP280;15453;53.692;10.168;2023-05-16T12:44:28;101299.09;;;18.56
27986;BMP280;15453;53.692;10.168;2023-05-16T12:46:53;101305.31;;;18.76
27986;BMP280;15453;53.692;10.168;2023-05-16T12:49:20;101305.31;;;18.76
27986;BMP280;15453;53.692;10.168;2023-05-16T12:51:50;101322.66;;;18.97
27986;BMP280;15453;53.692;10.168;2023-05-16T12:54:16;101322.66;;;18.97
27986;BMP280;15453;53.692;10.168;2023-05-16T12:56:41;101328.75;;;18.94
27986;BMP280;15453;53.692;10.168;2023-05-16T12:59:07;101326.84;;;18.94
27986;BMP280;15453;53.692;10.168;2023-05-16T13:01:34;101371.56;;;18.88
27986;BMP280;15453;53.692;10.168;2023-05-16T13:03:59;101360.81;;;18.76
27986;BMP280;15453;53.692;10.168;2023-05-16T13:06:25;101360.81;;;18.76
27986;BMP280;15453;53.692;10.168;2023-05-16T13:08:51;101356.63;;;18.40
27986;BMP280;15453;53.692;10.168;2023-05-16T13:11:16;101353.91;;;18.25
27986;BMP280;15453;53.692;10.168;2023-05-16T13:13:41;101353.91;;;18.25
27986;BMP280;15453;53.692;10.168;2023-05-16T13:16:06;101334.00;;;18.13
27986;BMP280;15453;53.692;10.168;2023-05-16T13:18:32;101350.91;;;18.12
27986;BMP280;15453;53.692;10.168;2023-05-16T13:20:58;101345.63;;;18.10
27986;BMP280;15453;53.692;10.168;2023-05-16T13:23:23;101337.06;;;18.07
27986;BMP280;15453;53.692;10.168;2023-05-16T13:25:48;101337.06;;;18.07
27986;BMP280;15453;53.692;10.168;2023-05-16T13:28:14;101328.78;;;18.02
27986;BMP280;15453;53.692;10.168;2023-05-16T13:30:39;101328.78;;;18.02
27986;BMP280;15453;53.692;10.168;2023-05-16T13:33:05;101342.91;;;18.05
27986;BMP280;15453;53.692;10.168;2023-05-16T13:35:30;101342.91;;;18.05
27986;BMP280;15453;53.692;10.168;2023-05-16T13:37:55;101338.41;;;18.19
27986;BMP280;15453;53.692;10.168;2023-05-16T13:40:21;101338.41;;;18.19
27986;BMP280;15453;53.692;10.168;2023-05-16T13:42:47;101337.19;;;18.45
27986;BMP280;15453;53.692;10.168;2023-05-16T13:45:13;101337.19;;;18.45
27986;BMP280;15453;53.692;10.168;2023-05-16T13:47:38;101355.13;;;18.58
27986;BMP280;15453;53.692;10.168;2023-05-16T13:50:04;101335.94;;;18.66
27986;BMP280;15453;53.692;10.168;2023-05-16T13:52:33;101335.94;;;18.66
27986;BMP280;15453;53.692;10.168;2023-05-16T13:54:58;101337.16;;;18.89
27986;BMP280;15453;53.692;10.168;2023-05-16T13:57:24;101345.97;;;18.96
27986;BMP280;15453;53.692;10.168;2023-05-16T13:59:51;101345.00;;;19.10
27986;BMP280;15453;53.692;10.168;2023-05-16T14:02:16;101344.47;;;19.08
27986;BMP280;15453;53.692;10.168;2023-05-16T14:04:41;101349.72;;;19.10
27986;BMP280;15453;53.692;10.168;2023-05-16T14:07:07;101341.34;;;19.15
27986;BMP280;15453;53.692;10.168;2023-05-16T14:09:32;101339.66;;;19.19
27986;BMP280;15453;53.692;10.168;2023-05-16T14:11:59;101341.84;;;19.27